Hovedside
METAR-TAF:

METAR-TAF

Lufthavner :

Mariehamn lufthavn

Mariehamn, Finland

breddegrad: 60-07N, lengdegrad: 019-54E, høyde over havet: 6 m

Gjeldene værobservasjon

Denne rapporten ble laget for 22 minutter siden, klokken 21:20 UTC
Vind 5 kt fra Nord
Temperatur 12°C
Luftfuktighet 88%
Trykk 1025 hPa
Sikt 10 km eller mer
ingen skyer under 1500 m og ingen bygeskyer

METAR: EFMA 102120Z AUTO 35005KT CAVOK 12/10 Q1025

Tid: 00:42 (21:42 UTC)

Varsel

Denne rapporten ble laget for 1 time og 20 minutter siden, klokken 20:22 UTC
Varsel gyldig fra 10. klokken 21 UTC til 11. klokken 06 UTC
Vind 3 kt fra Nord
Sikt 10 km eller mer
ingen skyer under 1500 m og ingen bygeskyer

TAF: EFMA 102022Z 1021/1106 36003KT CAVOK

Værobservasjoner og værvarsel for over 4000 flyplasser (METAR- og TAF-rapporter).

Tilgjengelige stasjoner er representert av de røde og gule prikkene på kartet.

Hold musepekeren over prikken for å se navnet på stasjonen.

Klikk så for å se værobservasjoner og -varsler.

For å forandre kartet kan du klikke på den grønne knappen med svart kryss for å zoome inn, på den grønne knappen med strek for å zoome ut, eller på de grønne pilene for å se tilstøtende kart.


METAR-TAF: